createdAt,value
2023-02-28T00:00:13.625Z,62.25
2023-02-28T00:03:02.494Z,63.93
2023-02-28T00:05:32.643Z,63.85
2023-02-28T00:08:01.457Z,62.20
2023-02-28T00:10:32.251Z,60.62
2023-02-28T00:13:04.468Z,58.77
2023-02-28T00:15:34.473Z,57.69
2023-02-28T00:18:04.589Z,58.51
2023-02-28T00:20:33.560Z,59.46
2023-02-28T00:23:03.991Z,60.56
2023-02-28T00:25:33.661Z,61.38
2023-02-28T00:28:02.793Z,62.21
2023-02-28T00:30:32.980Z,63.65
2023-02-28T00:33:02.663Z,63.68
2023-02-28T00:35:31.646Z,62.06
2023-02-28T00:38:00.537Z,60.40
2023-02-28T00:40:31.038Z,58.67
2023-02-28T00:42:59.984Z,57.84
2023-02-28T00:45:29.470Z,58.89
2023-02-28T00:48:00.962Z,60.01
2023-02-28T00:50:29.966Z,60.91
2023-02-28T00:53:01.751Z,61.74
2023-02-28T00:55:30.622Z,62.70
2023-02-28T00:58:00.884Z,64.38
2023-02-28T01:00:31.302Z,63.67
2023-02-28T01:03:00.385Z,61.98
2023-02-28T01:05:29.605Z,60.33
2023-02-28T01:07:59.612Z,58.81
2023-02-28T01:10:32.595Z,58.05
2023-02-28T01:13:03.642Z,59.07
2023-02-28T01:15:35.010Z,60.10
2023-02-28T01:18:05.027Z,61.03
2023-02-28T01:20:34.711Z,62.00
2023-02-28T01:23:04.732Z,63.39
2023-02-28T01:25:38.926Z,64.34
2023-02-28T01:28:12.638Z,63.10
2023-02-28T01:30:44.063Z,61.56
2023-02-28T01:33:27.723Z,60.17
2023-02-28T01:36:30.314Z,58.99
2023-02-28T01:39:03.931Z,57.92
2023-02-28T01:41:39.877Z,58.94
2023-02-28T01:44:49.680Z,60.14
2023-02-28T01:47:20.934Z,61.25
2023-02-28T01:50:21.285Z,62.48
2023-02-28T01:53:21.516Z,64.32
2023-02-28T01:56:13.759Z,63.75
2023-02-28T01:58:45.180Z,62.24
2023-02-28T02:01:53.925Z,60.79
2023-02-28T02:04:53.917Z,59.51
2023-02-28T02:07:27.413Z,58.24
2023-02-28T02:10:16.374Z,59.27
2023-02-28T02:12:58.174Z,60.64
2023-02-28T02:15:50.541Z,61.81
2023-02-28T02:18:37.738Z,63.60
2023-02-28T02:21:28.086Z,64.27
2023-02-28T02:24:38.025Z,62.96
2023-02-28T02:27:57.405Z,61.55
2023-02-28T02:30:58.059Z,60.22
2023-02-28T02:33:48.981Z,58.80
2023-02-28T02:36:30.670Z,58.20
2023-02-28T02:39:14.023Z,59.50
2023-02-28T02:41:59.571Z,60.98
2023-02-28T02:44:46.239Z,62.37
2023-02-28T02:47:22.904Z,64.40
2023-02-28T02:49:58.698Z,64.01
2023-02-28T02:52:48.024Z,62.64
2023-02-28T02:55:19.750Z,61.30
2023-02-28T02:57:53.804Z,60.12
2023-02-28T03:00:31.108Z,58.94
2023-02-28T03:03:04.598Z,58.45
2023-02-28T03:05:43.339Z,59.66
2023-02-28T03:08:12.681Z,61.07
2023-02-28T03:10:49.664Z,62.32
2023-02-28T03:13:50.108Z,64.22
2023-02-28T03:16:33.260Z,64.23
2023-02-28T03:19:30.615Z,62.92
2023-02-28T03:22:34.537Z,61.62
2023-02-28T03:25:22.020Z,60.38
2023-02-28T03:28:04.234Z,59.26
2023-02-28T03:30:59.387Z,58.14
2023-02-28T03:33:34.925Z,59.38
2023-02-28T03:36:14.758Z,60.79
2023-02-28T03:38:50.604Z,61.93
2023-02-28T03:41:24.580Z,63.63
2023-02-28T03:44:17.936Z,64.53
2023-02-28T03:46:54.866Z,63.50
2023-02-28T03:49:32.634Z,62.16
2023-02-28T03:52:05.362Z,60.98
2023-02-28T03:54:39.564Z,59.96
2023-02-28T03:57:17.348Z,58.85
2023-02-28T03:59:52.264Z,58.42
2023-02-28T04:02:23.756Z,59.77
2023-02-28T04:04:52.451Z,61.12
2023-02-28T04:07:25.141Z,62.32
2023-02-28T04:09:54.197Z,64.26
2023-02-28T04:12:24.378Z,64.65
2023-02-28T04:14:53.075Z,63.53
2023-02-28T04:17:21.775Z,62.32
2023-02-28T04:19:51.572Z,61.22
2023-02-28T04:22:21.500Z,60.24
2023-02-28T04:24:50.206Z,59.40
2023-02-28T04:27:19.014Z,58.36
2023-02-28T04:29:47.601Z,59.38
2023-02-28T04:32:16.229Z,60.80
2023-02-28T04:34:44.851Z,62.09
2023-02-28T04:37:14.412Z,64.02
2023-02-28T04:39:46.012Z,64.81
2023-02-28T04:42:16.496Z,63.70
2023-02-28T04:44:45.113Z,62.41
2023-02-28T04:47:13.839Z,61.25
2023-02-28T04:49:43.383Z,60.27
2023-02-28T04:52:11.916Z,59.29
2023-02-28T04:54:40.739Z,58.37
2023-02-28T04:57:09.584Z,59.53
2023-02-28T04:59:39.049Z,61.08
2023-02-28T05:02:08.313Z,62.56
2023-02-28T05:04:37.948Z,64.51
2023-02-28T05:07:06.735Z,64.37
2023-02-28T05:09:35.839Z,63.17
2023-02-28T05:12:04.517Z,61.93
2023-02-28T05:14:33.066Z,60.76
2023-02-28T05:17:01.901Z,59.65
2023-02-28T05:19:31.871Z,58.27
2023-02-28T05:22:01.030Z,59.01
2023-02-28T05:24:29.530Z,60.53
2023-02-28T05:26:58.536Z,61.80
2023-02-28T05:29:27.022Z,63.51
2023-02-28T05:31:55.656Z,64.74
2023-02-28T05:34:24.196Z,63.95
2023-02-28T05:36:52.723Z,62.84
2023-02-28T05:39:21.357Z,61.83
2023-02-28T05:41:49.881Z,60.94
2023-02-28T05:44:18.550Z,60.05
2023-02-28T05:46:47.119Z,59.13
2023-02-28T05:49:15.568Z,58.49
2023-02-28T05:51:44.020Z,59.71
2023-02-28T05:54:13.949Z,61.22
2023-02-28T05:56:45.261Z,62.71
2023-02-28T05:59:14.465Z,64.69
2023-02-28T06:01:49.501Z,64.41
2023-02-28T06:04:34.351Z,63.25
2023-02-28T06:07:02.978Z,62.09
2023-02-28T06:09:31.494Z,60.95
2023-02-28T06:12:01.557Z,60.00
2023-02-28T06:14:30.128Z,58.93
2023-02-28T06:16:59.904Z,58.40
2023-02-28T06:19:28.603Z,59.76
2023-02-28T06:21:58.176Z,61.01
2023-02-28T06:24:31.552Z,62.24
2023-02-28T06:27:06.338Z,64.31
2023-02-28T06:29:40.943Z,64.57
2023-02-28T06:32:09.717Z,63.40
2023-02-28T06:34:38.214Z,61.97
2023-02-28T06:37:06.714Z,60.74
2023-02-28T06:39:35.672Z,59.60
2023-02-28T06:42:04.627Z,58.12
2023-02-28T06:44:36.589Z,59.00
2023-02-28T06:47:07.309Z,60.42
2023-02-28T06:49:37.422Z,61.98
2023-02-28T06:52:06.335Z,63.22
2023-02-28T06:54:34.832Z,64.59
2023-02-28T06:57:03.396Z,63.36
2023-02-28T06:59:32.312Z,62.30
2023-02-28T07:02:01.570Z,60.48
2023-02-28T07:04:30.161Z,57.87
2023-02-28T07:06:58.916Z,58.50
2023-02-28T07:09:31.184Z,59.84
2023-02-28T07:12:02.352Z,60.65
2023-02-28T07:14:31.688Z,62.03
2023-02-28T07:17:00.908Z,63.46
2023-02-28T07:19:29.619Z,62.14
2023-02-28T07:21:58.286Z,60.17
2023-02-28T07:24:29.597Z,58.11
2023-02-28T07:26:58.780Z,57.87
2023-02-28T07:29:27.995Z,59.02
2023-02-28T07:31:57.572Z,60.11
2023-02-28T07:34:27.296Z,60.92
2023-02-28T07:36:56.324Z,61.83
2023-02-28T07:39:25.241Z,62.47
2023-02-28T07:41:54.499Z,63.77
2023-02-28T07:44:28.258Z,62.21
2023-02-28T07:46:58.054Z,59.76
2023-02-28T07:49:26.815Z,57.76
2023-02-28T07:51:55.528Z,58.26
2023-02-28T07:54:25.028Z,59.21
2023-02-28T07:56:53.718Z,60.09
2023-02-28T07:59:22.408Z,60.70
2023-02-28T08:01:52.657Z,61.22
2023-02-28T08:04:26.125Z,61.58
2023-02-28T08:06:57.350Z,62.14
2023-02-28T08:09:27.486Z,63.03
2023-02-28T08:11:57.241Z,61.53
2023-02-28T08:14:27.897Z,58.88
2023-02-28T08:17:00.126Z,57.11
2023-02-28T08:19:31.259Z,57.66
2023-02-28T08:22:04.963Z,58.69
2023-02-28T08:24:44.972Z,59.25
2023-02-28T08:27:14.380Z,59.78
2023-02-28T08:29:44.240Z,60.21
2023-02-28T08:32:29.323Z,61.07
2023-02-28T08:35:34.101Z,61.16
2023-02-28T08:39:04.002Z,61.44
2023-02-28T08:46:37.619Z,61.11
2023-02-28T08:50:30.334Z,61.47
2023-02-28T08:53:21.129Z,60.97
2023-02-28T08:56:14.872Z,60.75
2023-02-28T08:58:45.587Z,60.99
2023-02-28T09:01:20.962Z,60.79
2023-02-28T09:03:53.099Z,59.95
2023-02-28T09:06:47.793Z,59.51
2023-02-28T09:09:24.016Z,58.74
2023-02-28T09:12:02.107Z,58.10
2023-02-28T09:14:36.351Z,58.55
2023-02-28T09:17:11.875Z,57.39
2023-02-28T09:19:50.003Z,56.75
2023-02-28T09:22:30.238Z,56.54
2023-02-28T09:25:09.028Z,55.88
2023-02-28T09:28:08.457Z,54.38
2023-02-28T09:30:57.952Z,52.96
2023-02-28T09:34:00.942Z,54.91
2023-02-28T09:39:56.820Z,55.29
2023-02-28T09:43:10.102Z,54.56
2023-02-28T16:39:12.764Z,43.98
2023-02-28T16:39:36.140Z,44.62
2023-02-28T16:42:56.165Z,45.47
2023-02-28T16:46:07.944Z,46.37
2023-02-28T16:48:59.389Z,47.49
2023-02-28T16:51:44.552Z,48.24
2023-02-28T16:54:21.112Z,49.11
2023-02-28T16:56:57.649Z,49.38
2023-02-28T16:59:30.532Z,50.24
2023-02-28T17:02:02.467Z,51.23
2023-02-28T17:04:36.537Z,52.32
2023-02-28T17:07:20.508Z,53.23
2023-02-28T17:09:52.487Z,54.61
2023-02-28T17:12:25.187Z,54.53
2023-02-28T17:14:58.840Z,54.02
2023-02-28T17:17:34.057Z,55.38
2023-02-28T17:20:11.678Z,56.03
2023-02-28T17:22:43.683Z,57.10
2023-02-28T17:25:16.460Z,57.34
2023-02-28T17:27:51.524Z,57.91
2023-02-28T17:30:26.094Z,59.09
2023-02-28T17:33:09.749Z,59.49
2023-02-28T17:35:40.419Z,60.26
2023-02-28T17:38:19.642Z,60.16
2023-02-28T17:40:51.285Z,61.14
2023-02-28T17:43:21.045Z,62.05
2023-02-28T17:45:50.349Z,62.38
2023-02-28T17:48:20.065Z,62.66
2023-02-28T17:50:52.505Z,62.35
2023-02-28T17:53:24.675Z,61.18
2023-02-28T17:55:54.706Z,59.25
2023-02-28T17:58:23.983Z,57.28
2023-02-28T18:00:55.568Z,57.65
2023-02-28T18:03:26.498Z,57.49
2023-02-28T18:05:56.738Z,57.26
2023-02-28T18:08:27.260Z,58.99
2023-02-28T18:10:58.134Z,59.74
2023-02-28T18:13:28.989Z,60.61
2023-02-28T18:15:59.315Z,61.67
2023-02-28T18:18:31.032Z,62.41
2023-02-28T18:21:02.738Z,63.83
2023-02-28T18:23:32.618Z,64.09
2023-02-28T18:26:07.126Z,63.00
2023-02-28T18:28:38.127Z,61.45
2023-02-28T18:31:10.151Z,59.96
2023-02-28T18:33:40.129Z,58.08
2023-02-28T18:36:11.371Z,57.82
2023-02-28T18:38:46.704Z,58.63
2023-02-28T18:41:21.836Z,59.30
2023-02-28T18:43:55.813Z,60.21
2023-02-28T18:46:25.296Z,60.69
2023-02-28T18:48:58.521Z,60.97
2023-02-28T18:51:47.758Z,62.05
2023-02-28T18:54:19.563Z,63.74
2023-02-28T18:57:12.902Z,63.94
2023-02-28T18:59:45.256Z,62.91
2023-02-28T19:02:23.388Z,61.61
2023-02-28T19:04:53.590Z,60.27
2023-02-28T19:07:44.205Z,58.28
2023-02-28T19:10:19.476Z,57.91
2023-02-28T19:12:50.539Z,58.27
2023-02-28T19:15:22.349Z,58.90
2023-02-28T19:17:56.027Z,59.86
2023-02-28T19:20:25.993Z,61.27
2023-02-28T19:22:55.925Z,61.94
2023-02-28T19:25:27.580Z,62.11
2023-02-28T19:28:03.936Z,63.26
2023-02-28T19:30:36.476Z,64.40
2023-02-28T19:33:08.466Z,63.58
2023-02-28T19:35:37.269Z,61.83
2023-02-28T19:38:06.077Z,60.19
2023-02-28T19:40:35.316Z,58.73
2023-02-28T19:43:05.430Z,57.48
2023-02-28T19:45:37.174Z,58.27
2023-02-28T19:48:06.371Z,59.21
2023-02-28T19:50:37.849Z,60.00
2023-02-28T19:53:14.306Z,60.18
2023-02-28T19:55:43.489Z,61.00
2023-02-28T19:58:13.064Z,62.05
2023-02-28T20:00:42.999Z,62.84
2023-02-28T20:03:12.932Z,63.89
2023-02-28T20:05:42.943Z,63.67
2023-02-28T20:08:14.042Z,62.38
2023-02-28T20:10:43.792Z,60.89
2023-02-28T20:13:16.664Z,59.36
2023-02-28T20:15:45.891Z,57.58
2023-02-28T20:18:16.620Z,57.51
2023-02-28T20:20:45.399Z,58.15
2023-02-28T20:23:19.383Z,59.74
2023-02-28T20:25:48.072Z,60.79
2023-02-28T20:28:17.074Z,61.75
2023-02-28T20:30:50.508Z,62.19
2023-02-28T20:33:19.662Z,63.84
2023-02-28T20:35:49.869Z,64.31
2023-02-28T20:38:19.360Z,63.53
2023-02-28T20:40:48.029Z,62.51
2023-02-28T20:43:16.705Z,61.40
2023-02-28T20:45:53.577Z,59.96
2023-02-28T20:48:23.057Z,58.41
2023-02-28T20:50:54.536Z,58.38
2023-02-28T20:53:25.974Z,59.12
2023-02-28T20:55:58.433Z,59.83
2023-02-28T20:58:31.298Z,60.39
2023-02-28T21:01:18.775Z,61.50
2023-02-28T21:03:51.746Z,62.55
2023-02-28T21:06:22.221Z,62.65
2023-02-28T21:08:51.398Z,62.16
2023-02-28T21:11:25.986Z,60.66
2023-02-28T21:14:03.851Z,59.16
2023-02-28T21:16:33.297Z,57.73
2023-02-28T21:19:04.831Z,57.91
2023-02-28T21:21:39.726Z,59.95
2023-02-28T21:24:08.576Z,60.46
2023-02-28T21:26:40.367Z,60.92
2023-02-28T21:29:09.270Z,60.98
2023-02-28T21:31:38.521Z,62.08
2023-02-28T21:34:09.991Z,64.08
2023-02-28T21:36:42.363Z,64.34
2023-02-28T21:39:20.532Z,63.56
2023-02-28T21:41:49.853Z,62.31
2023-02-28T21:44:19.153Z,61.02
2023-02-28T21:46:51.278Z,59.94
2023-02-28T21:49:19.924Z,58.53
2023-02-28T21:51:49.025Z,58.45
2023-02-28T21:54:17.706Z,59.43
2023-02-28T21:56:46.446Z,60.63
2023-02-28T21:59:15.983Z,61.36
2023-02-28T22:01:45.664Z,62.26
2023-02-28T22:04:22.698Z,63.03
2023-02-28T22:06:55.027Z,63.16
2023-02-28T22:09:23.895Z,62.35
2023-02-28T22:11:52.531Z,61.08
2023-02-28T22:14:21.668Z,59.65
2023-02-28T22:16:54.722Z,58.00
2023-02-28T22:19:24.555Z,58.51
2023-02-28T22:21:54.080Z,59.70
2023-02-28T22:24:24.828Z,60.58
2023-02-28T22:26:54.183Z,61.05
2023-02-28T22:29:23.017Z,61.95
2023-02-28T22:31:51.953Z,62.83
2023-02-28T22:34:20.697Z,63.90
2023-02-28T22:36:49.212Z,63.49
2023-02-28T22:39:17.851Z,62.49
2023-02-28T22:41:46.344Z,61.85
2023-02-28T22:44:14.807Z,60.79
2023-02-28T22:46:43.463Z,59.67
2023-02-28T22:49:12.005Z,58.15
2023-02-28T22:51:40.444Z,58.74
2023-02-28T22:54:09.738Z,59.73
2023-02-28T22:56:38.733Z,60.49
2023-02-28T22:59:07.280Z,61.55
2023-02-28T23:01:36.063Z,63.14
2023-02-28T23:04:04.938Z,64.19
2023-02-28T23:06:38.027Z,62.75
2023-02-28T23:09:08.885Z,61.20
2023-02-28T23:11:40.961Z,60.40
2023-02-28T23:14:12.968Z,59.46
2023-02-28T23:17:01.333Z,57.96
2023-02-28T23:19:31.480Z,58.60
2023-02-28T23:22:01.465Z,59.76
2023-02-28T23:24:32.730Z,60.16
2023-02-28T23:27:04.570Z,61.01
2023-02-28T23:29:34.267Z,62.34
2023-02-28T23:32:03.703Z,63.94
2023-02-28T23:34:32.422Z,65.05
2023-02-28T23:37:02.508Z,63.85
2023-02-28T23:39:31.922Z,62.51
2023-02-28T23:42:02.086Z,61.50
2023-02-28T23:44:31.076Z,60.57
2023-02-28T23:46:59.780Z,59.72
2023-02-28T23:49:28.637Z,58.24
2023-02-28T23:51:57.859Z,58.43
2023-02-28T23:54:26.308Z,59.10
2023-02-28T23:56:54.736Z,59.94
2023-02-28T23:59:23.393Z,62.25
